createdAt,value
2023-02-14T00:01:31.528Z,5.52
2023-02-14T00:04:00.926Z,5.52
2023-02-14T00:06:35.020Z,5.51
2023-02-14T00:09:03.396Z,5.51
2023-02-14T00:11:31.894Z,5.47
2023-02-14T00:14:18.362Z,5.44
2023-02-14T00:16:46.252Z,5.39
2023-02-14T00:19:16.270Z,5.41
2023-02-14T00:21:44.808Z,5.43
2023-02-14T00:24:14.962Z,5.44
2023-02-14T00:26:42.826Z,5.43
2023-02-14T00:29:15.170Z,5.44
2023-02-14T00:31:44.925Z,5.45
2023-02-14T00:34:14.474Z,5.45
2023-02-14T00:36:43.108Z,5.43
2023-02-14T00:39:14.563Z,5.41
2023-02-14T00:41:43.096Z,5.38
2023-02-14T00:44:13.305Z,5.37
2023-02-14T00:46:41.672Z,5.35
2023-02-14T00:49:09.871Z,5.32
2023-02-14T00:51:40.721Z,5.31
2023-02-14T00:54:08.536Z,5.33
2023-02-14T00:56:36.226Z,5.36
2023-02-14T00:59:03.945Z,5.40
2023-02-14T01:01:31.799Z,5.42
2023-02-14T01:03:59.556Z,5.43
2023-02-14T01:06:27.385Z,5.46
2023-02-14T01:08:57.680Z,5.47
2023-02-14T01:11:25.827Z,5.46
2023-02-14T01:13:56.765Z,5.46
2023-02-14T01:16:27.019Z,5.47
2023-02-14T01:18:59.797Z,5.47
2023-02-14T01:21:31.710Z,5.45
2023-02-14T01:24:05.702Z,5.42
2023-02-14T01:26:35.014Z,5.39
2023-02-14T01:29:04.508Z,5.38
2023-02-14T01:31:35.126Z,5.38
2023-02-14T01:34:04.112Z,5.38
2023-02-14T01:36:37.115Z,5.38
2023-02-14T01:39:12.920Z,5.34
2023-02-14T01:41:44.071Z,5.35
2023-02-14T01:44:14.949Z,5.33
2023-02-14T01:46:45.036Z,5.30
2023-02-14T01:49:34.932Z,5.27
2023-02-14T01:52:27.327Z,5.24
2023-02-14T01:55:00.277Z,5.24
2023-02-14T01:57:43.242Z,5.17
2023-02-14T02:00:32.618Z,5.16
2023-02-14T02:03:01.869Z,5.19
2023-02-14T02:05:29.882Z,5.23
2023-02-14T02:08:00.133Z,5.25
2023-02-14T02:10:29.385Z,5.26
2023-02-14T02:13:03.121Z,5.26
2023-02-14T02:15:39.468Z,5.25
2023-02-14T02:18:30.798Z,5.26
2023-02-14T02:21:43.344Z,5.23
2023-02-14T02:24:25.879Z,5.17
2023-02-14T02:27:03.719Z,5.16
2023-02-14T02:30:15.044Z,5.17
2023-02-14T02:33:33.167Z,5.17
2023-02-14T02:36:25.322Z,5.19
2023-02-14T02:39:41.349Z,5.20
2023-02-14T02:42:28.448Z,5.14
2023-02-14T02:45:32.436Z,5.11
2023-02-14T02:48:32.216Z,5.10
2023-02-14T02:51:25.247Z,5.06
2023-02-14T02:54:20.185Z,5.03
2023-02-14T02:56:58.185Z,5.03
2023-02-14T02:59:34.260Z,5.04
2023-02-14T03:03:05.066Z,5.01
2023-02-14T03:05:34.457Z,4.96
2023-02-14T03:08:04.669Z,4.95
2023-02-14T03:10:38.761Z,4.97
2023-02-14T03:13:33.648Z,4.97
2023-02-14T03:16:26.683Z,4.94
2023-02-14T03:19:35.441Z,4.89
2023-02-14T03:22:15.608Z,4.88
2023-02-14T03:25:10.908Z,4.87
2023-02-14T03:27:48.380Z,4.89
2023-02-14T03:31:10.029Z,4.90
2023-02-14T03:33:52.628Z,4.89
2023-02-14T03:36:41.910Z,4.91
2023-02-14T03:39:26.697Z,4.91
2023-02-14T03:42:09.285Z,4.92
2023-02-14T03:44:40.147Z,4.90
2023-02-14T03:47:16.930Z,4.88
2023-02-14T03:49:53.121Z,4.88
2023-02-14T03:52:22.428Z,4.89
2023-02-14T03:54:54.449Z,4.90
2023-02-14T03:58:02.353Z,4.90
2023-02-14T04:00:35.397Z,4.80
2023-02-14T04:03:13.095Z,4.82
2023-02-14T04:05:43.328Z,4.83
2023-02-14T04:08:11.857Z,4.83
2023-02-14T04:10:41.349Z,4.84
2023-02-14T04:13:09.258Z,4.82
2023-02-14T04:15:37.047Z,4.80
2023-02-14T04:18:23.498Z,4.78
2023-02-14T04:20:51.267Z,4.78
2023-02-14T04:23:19.019Z,4.79
2023-02-14T04:25:47.386Z,4.80
2023-02-14T04:28:15.248Z,4.78
2023-02-14T04:30:43.218Z,4.77
2023-02-14T04:33:10.933Z,4.76
2023-02-14T04:35:38.716Z,4.76
2023-02-14T04:38:06.585Z,4.77
2023-02-14T04:40:34.297Z,4.76
2023-02-14T04:43:03.926Z,4.77
2023-02-14T04:45:31.717Z,4.75
2023-02-14T04:47:59.869Z,4.75
2023-02-14T04:50:27.576Z,4.75
2023-02-14T04:52:55.454Z,4.75
2023-02-14T04:55:23.456Z,4.73
2023-02-14T04:57:51.221Z,4.71
2023-02-14T05:00:19.558Z,4.71
2023-02-14T05:02:47.280Z,4.73
2023-02-14T05:05:15.166Z,4.75
2023-02-14T05:07:47.052Z,4.74
2023-02-14T05:10:14.949Z,4.77
2023-02-14T05:12:42.814Z,4.78
2023-02-14T05:15:10.658Z,4.79
2023-02-14T05:17:38.496Z,4.82
2023-02-14T05:20:09.426Z,4.85
2023-02-14T05:22:37.077Z,4.86
2023-02-14T05:25:05.374Z,4.85
2023-02-14T05:27:33.228Z,4.84
2023-02-14T05:30:01.013Z,4.84
2023-02-14T05:32:28.775Z,4.85
2023-02-14T05:34:56.469Z,4.85
2023-02-14T05:37:24.205Z,4.86
2023-02-14T05:39:51.902Z,4.88
2023-02-14T05:42:19.811Z,4.90
2023-02-14T05:44:48.267Z,4.93
2023-02-14T05:47:16.008Z,4.94
2023-02-14T05:49:43.685Z,4.93
2023-02-14T05:52:11.434Z,4.94
2023-02-14T05:54:39.047Z,4.95
2023-02-14T05:57:06.981Z,4.95
2023-02-14T05:59:34.712Z,4.95
2023-02-14T06:02:02.629Z,4.96
2023-02-14T06:04:30.546Z,4.97
2023-02-14T06:06:58.577Z,4.94
2023-02-14T06:09:26.667Z,4.94
2023-02-14T06:11:55.322Z,4.94
2023-02-14T06:14:23.316Z,4.96
2023-02-14T06:16:51.463Z,4.98
2023-02-14T06:19:19.128Z,4.97
2023-02-14T06:21:47.176Z,4.96
2023-02-14T06:24:14.814Z,4.96
2023-02-14T06:26:42.528Z,4.96
2023-02-14T06:29:10.708Z,4.93
2023-02-14T06:31:38.508Z,4.92
2023-02-14T06:34:06.622Z,4.92
2023-02-14T06:36:34.892Z,4.93
2023-02-14T06:39:03.835Z,4.94
2023-02-14T06:41:31.670Z,4.94
2023-02-14T06:43:59.671Z,4.95
2023-02-14T06:46:27.536Z,4.97
2023-02-14T06:48:55.277Z,4.97
2023-02-14T06:51:23.205Z,4.97
2023-02-14T06:53:51.025Z,5.00
2023-02-14T06:56:18.790Z,5.03
2023-02-14T06:58:46.692Z,5.06
2023-02-14T07:01:14.655Z,5.09
2023-02-14T07:03:42.645Z,5.14
2023-02-14T07:06:10.395Z,5.20
2023-02-14T07:08:38.073Z,5.26
2023-02-14T07:11:05.746Z,5.31
2023-02-14T07:13:33.497Z,5.35
2023-02-14T07:16:01.216Z,5.38
2023-02-14T07:18:28.928Z,5.43
2023-02-14T07:20:56.724Z,5.49
2023-02-14T07:23:24.442Z,5.53
2023-02-14T07:25:52.124Z,5.57
2023-02-14T07:28:19.835Z,5.63
2023-02-14T07:30:48.151Z,5.70
2023-02-14T07:33:16.326Z,5.72
2023-02-14T07:35:44.184Z,5.74
2023-02-14T07:38:11.837Z,5.80
2023-02-14T07:40:40.409Z,5.84
2023-02-14T07:43:08.224Z,5.89
2023-02-14T07:45:35.968Z,5.92
2023-02-14T07:48:04.126Z,5.95
2023-02-14T07:50:31.827Z,5.98
2023-02-14T07:52:59.423Z,6.00
2023-02-14T07:55:27.260Z,6.03
2023-02-14T07:57:54.939Z,6.08
2023-02-14T08:00:22.984Z,6.14
2023-02-14T08:02:50.733Z,6.18
2023-02-14T08:05:18.928Z,6.22
2023-02-14T08:07:46.781Z,6.27
2023-02-14T08:10:14.646Z,6.29
2023-02-14T08:13:00.856Z,6.34
2023-02-14T08:15:56.188Z,6.37
2023-02-14T08:18:23.993Z,6.39
2023-02-14T08:20:51.679Z,6.41
2023-02-14T08:23:21.026Z,6.46
2023-02-14T08:25:50.966Z,6.53
2023-02-14T08:28:21.126Z,6.60
2023-02-14T08:30:49.609Z,6.65
2023-02-14T08:33:18.104Z,6.70
2023-02-14T08:35:45.979Z,6.75
2023-02-14T08:38:13.920Z,6.84
2023-02-14T08:40:42.290Z,6.92
2023-02-14T08:43:10.822Z,6.96
2023-02-14T08:45:40.080Z,6.97
2023-02-14T08:48:11.341Z,6.94
2023-02-14T08:50:40.208Z,6.95
2023-02-14T08:53:10.775Z,6.93
2023-02-14T08:55:39.909Z,6.94
2023-02-14T08:58:07.685Z,7.03
2023-02-14T09:00:35.597Z,7.12
2023-02-14T09:03:03.829Z,7.16
2023-02-14T09:05:33.418Z,7.17
2023-02-14T09:08:02.799Z,7.16
2023-02-14T09:10:30.941Z,7.15
2023-02-14T09:12:58.646Z,7.13
2023-02-14T09:15:26.377Z,7.15
2023-02-14T09:17:54.098Z,7.14
2023-02-14T09:20:22.054Z,7.13
2023-02-14T09:22:50.078Z,7.12
2023-02-14T09:25:17.769Z,7.12
2023-02-14T09:27:45.504Z,7.14
2023-02-14T09:30:14.479Z,7.16
2023-02-14T09:32:42.284Z,7.17
2023-02-14T09:35:28.693Z,7.16
2023-02-14T09:38:15.363Z,7.13
2023-02-14T09:40:43.872Z,7.11
2023-02-14T09:43:33.367Z,7.11
2023-02-14T09:46:02.857Z,7.12
2023-02-14T09:48:43.152Z,7.16
2023-02-14T09:51:22.785Z,7.21
2023-02-14T09:54:13.705Z,7.24
2023-02-14T09:57:06.573Z,7.15
2023-02-14T10:00:25.697Z,7.09
2023-02-14T10:03:07.839Z,6.96
2023-02-14T10:05:47.043Z,6.85
2023-02-14T10:08:31.152Z,6.75
2023-02-14T10:11:10.284Z,6.78
2023-02-14T10:13:48.544Z,6.85
2023-02-14T10:16:33.087Z,6.91
2023-02-14T10:19:39.593Z,6.93
2023-02-14T10:22:20.925Z,6.89
2023-02-14T10:25:08.441Z,6.97
2023-02-14T10:27:41.648Z,7.08
2023-02-14T10:30:20.985Z,7.17
2023-02-14T10:33:27.991Z,7.25
2023-02-14T10:36:04.742Z,7.33
2023-02-14T10:38:47.272Z,7.36
2023-02-14T10:41:39.495Z,7.41
2023-02-14T10:44:51.983Z,7.46
2023-02-14T10:47:26.182Z,7.44
2023-02-14T10:50:20.879Z,7.42
2023-02-14T10:53:03.354Z,7.52
2023-02-14T10:55:56.353Z,7.63
2023-02-14T10:58:34.165Z,7.68
2023-02-14T11:01:12.887Z,7.71
2023-02-14T11:04:03.101Z,7.73
2023-02-14T11:06:30.946Z,7.71
2023-02-14T11:08:58.993Z,7.69
2023-02-14T11:11:31.432Z,7.70
2023-02-14T11:13:59.181Z,7.71
2023-02-14T11:16:33.395Z,7.73
2023-02-14T11:19:37.230Z,7.64
2023-02-14T11:22:05.865Z,7.56
2023-02-14T11:24:41.741Z,7.63
2023-02-14T11:32:54.560Z,7.86
2023-02-14T11:35:33.639Z,7.92
2023-02-14T11:38:05.778Z,7.91
2023-02-14T11:40:38.374Z,7.90
2023-02-14T11:43:37.473Z,7.95
2023-02-14T11:46:24.305Z,7.93
2023-02-14T11:49:06.164Z,7.87
2023-02-14T11:51:44.697Z,7.87
2023-02-14T11:54:31.645Z,7.84
2023-02-14T11:57:27.153Z,7.82
2023-02-14T11:59:57.650Z,7.81
2023-02-14T12:02:44.342Z,7.78
2023-02-14T12:05:21.176Z,7.68
2023-02-14T12:08:07.782Z,7.67
2023-02-14T12:10:38.077Z,7.71
2023-02-14T12:13:08.910Z,7.77
2023-02-14T12:15:52.021Z,7.83
2023-02-14T12:18:40.539Z,7.90
2023-02-14T12:21:47.723Z,7.96
2023-02-14T12:25:07.035Z,7.96
2023-02-14T12:27:49.938Z,8.01
2023-02-14T12:30:24.865Z,8.00
2023-02-14T12:32:56.778Z,7.92
2023-02-14T12:35:46.778Z,7.92
2023-02-14T12:38:32.605Z,7.90
2023-02-14T12:42:02.316Z,7.91
2023-02-14T12:45:05.939Z,7.89
2023-02-14T12:47:47.297Z,7.97
2023-02-14T12:51:02.993Z,8.04
2023-02-14T12:54:04.816Z,7.96
2023-02-14T12:57:10.315Z,7.90
2023-02-14T13:00:09.245Z,7.90
2023-02-14T13:02:55.336Z,7.87
2023-02-14T13:06:10.977Z,7.83
2023-02-14T13:09:00.763Z,7.82
2023-02-14T13:11:50.053Z,7.83
2023-02-14T13:14:30.245Z,7.84
2023-02-14T13:17:36.718Z,7.84
2023-02-14T13:20:19.267Z,7.78
2023-02-14T13:22:48.722Z,7.72
2023-02-14T13:25:34.309Z,7.75
2023-02-14T13:28:12.377Z,7.78
2023-02-14T13:30:42.517Z,7.75
2023-02-14T13:33:34.927Z,7.76
2023-02-14T13:36:10.406Z,7.77
2023-02-14T13:38:52.726Z,7.83
2023-02-14T13:41:21.944Z,7.85
2023-02-14T13:43:59.589Z,7.78
2023-02-14T13:46:33.650Z,7.74
2023-02-14T13:49:29.086Z,7.68
2023-02-14T13:52:05.775Z,7.70
2023-02-14T13:54:49.616Z,7.78
2023-02-14T13:57:40.618Z,7.71
2023-02-14T14:00:17.287Z,7.60
2023-02-14T14:02:46.538Z,7.57
2023-02-14T14:05:30.217Z,7.55
2023-02-14T14:08:19.884Z,7.55
2023-02-14T14:10:54.785Z,7.51
2023-02-14T14:13:41.601Z,7.54
2023-02-14T14:16:30.215Z,7.52
2023-02-14T14:19:16.656Z,7.52
2023-02-14T14:22:01.350Z,7.51
2023-02-14T14:24:32.320Z,7.54
2023-02-14T14:27:21.150Z,7.55
2023-02-14T14:29:55.860Z,7.51
2023-02-14T14:32:37.191Z,7.48
2023-02-14T14:35:10.534Z,7.47
2023-02-14T14:37:54.360Z,7.42
2023-02-14T14:40:31.448Z,7.38
2023-02-14T14:43:34.436Z,7.37
2023-02-14T14:46:04.302Z,7.32
2023-02-14T14:48:39.608Z,7.31
2023-02-14T14:51:16.552Z,7.30
2023-02-14T14:53:59.886Z,7.30
2023-02-14T14:56:46.465Z,7.28
2023-02-14T14:59:34.786Z,7.22
2023-02-14T15:02:21.063Z,7.18
2023-02-14T15:04:49.141Z,7.11
2023-02-14T15:07:33.332Z,7.08
2023-02-14T15:10:01.485Z,7.07
2023-02-14T15:12:48.365Z,7.04
2023-02-14T15:15:18.468Z,6.96
2023-02-14T15:17:48.057Z,6.92
2023-02-14T15:20:23.104Z,6.79
2023-02-14T15:22:53.057Z,6.77
2023-02-14T15:25:35.374Z,6.76
2023-02-14T15:28:03.364Z,6.74
2023-02-14T15:30:37.341Z,6.72
2023-02-14T15:33:07.177Z,6.69
2023-02-14T15:35:41.578Z,6.65
2023-02-14T15:38:11.873Z,6.61
2023-02-14T15:40:44.457Z,6.59
2023-02-14T15:43:31.920Z,6.56
2023-02-14T15:46:24.410Z,6.52
2023-02-14T15:48:53.110Z,6.50
2023-02-14T15:51:31.127Z,6.40
2023-02-14T15:53:59.989Z,6.38
2023-02-14T15:56:45.420Z,6.40
2023-02-14T15:59:25.591Z,6.43
2023-02-14T16:02:00.445Z,6.42
2023-02-14T16:04:34.309Z,6.39
2023-02-14T16:07:15.935Z,6.37
2023-02-14T16:09:44.006Z,6.35
2023-02-14T16:12:32.457Z,6.37
2023-02-14T16:15:23.984Z,6.37
2023-02-14T16:17:52.189Z,6.35
2023-02-14T16:20:48.668Z,6.34
2023-02-14T16:23:23.990Z,6.33
2023-02-14T16:25:53.030Z,6.34
2023-02-14T16:28:20.975Z,6.36
2023-02-14T16:30:58.335Z,6.35
2023-02-14T16:33:31.877Z,6.30
2023-02-14T16:36:25.681Z,6.27
2023-02-14T16:38:55.014Z,6.22
2023-02-14T16:41:26.692Z,6.21
2023-02-14T16:43:55.870Z,6.18
2023-02-14T16:46:35.549Z,6.16
2023-02-14T16:49:03.775Z,6.18
2023-02-14T16:51:35.449Z,6.19
2023-02-14T16:54:10.967Z,6.18
2023-02-14T16:57:04.398Z,6.16
2023-02-14T16:59:32.125Z,6.16
2023-02-14T17:02:00.629Z,6.17
2023-02-14T17:04:28.729Z,6.18
2023-02-14T17:06:57.560Z,6.16
2023-02-14T17:09:32.259Z,6.14
2023-02-14T17:12:11.546Z,6.12
2023-02-14T17:14:42.595Z,6.08
2023-02-14T17:17:11.591Z,6.06
2023-02-14T17:19:39.568Z,6.04
2023-02-14T17:22:08.102Z,6.03
2023-02-14T17:24:35.912Z,6.02
2023-02-14T17:27:04.286Z,6.00
2023-02-14T17:29:33.272Z,6.00
2023-02-14T17:32:01.648Z,6.01
2023-02-14T17:34:33.639Z,6.03
2023-02-14T17:37:02.378Z,6.03
2023-02-14T17:39:30.380Z,6.01
2023-02-14T17:42:00.808Z,5.96
2023-02-14T17:44:35.309Z,5.92
2023-02-14T17:47:04.746Z,5.87
2023-02-14T17:49:33.030Z,5.84
2023-02-14T17:52:04.169Z,5.78
2023-02-14T17:54:37.604Z,5.70
2023-02-14T17:57:05.643Z,5.66
2023-02-14T17:59:34.896Z,5.63
2023-02-14T18:02:03.260Z,5.62
2023-02-14T18:04:34.549Z,5.64
2023-02-14T18:07:04.619Z,5.63
2023-02-14T18:09:32.745Z,5.59
2023-02-14T18:12:01.034Z,5.51
2023-02-14T18:14:30.193Z,5.45
2023-02-14T18:16:58.405Z,5.41
2023-02-14T18:19:26.436Z,5.39
2023-02-14T18:21:54.408Z,5.38
2023-02-14T18:24:24.819Z,5.36
2023-02-14T18:26:53.019Z,5.34
2023-02-14T18:29:22.101Z,5.32
2023-02-14T18:31:50.156Z,5.30
2023-02-14T18:34:23.658Z,5.29
2023-02-14T18:36:52.304Z,5.25
2023-02-14T18:39:20.370Z,5.20
2023-02-14T18:41:48.534Z,5.16
2023-02-14T18:44:20.982Z,5.10
2023-02-14T18:46:50.676Z,5.05
2023-02-14T18:49:18.798Z,5.02
2023-02-14T18:51:48.363Z,5.00
2023-02-14T18:54:16.241Z,4.98
2023-02-14T18:56:44.134Z,4.96
2023-02-14T18:59:12.925Z,4.95
2023-02-14T19:01:45.079Z,4.92
2023-02-14T19:04:15.850Z,4.89
2023-02-14T19:06:44.653Z,4.78
2023-02-14T19:09:18.093Z,4.75
2023-02-14T19:11:46.255Z,4.75
2023-02-14T19:14:14.043Z,4.75
2023-02-14T19:16:50.043Z,4.74
2023-02-14T19:19:18.360Z,4.73
2023-02-14T19:21:46.142Z,4.71
2023-02-14T19:24:16.913Z,4.70
2023-02-14T19:26:45.751Z,4.67
2023-02-14T19:29:17.606Z,4.64
2023-02-14T19:31:49.657Z,4.61
2023-02-14T19:34:20.620Z,4.58
2023-02-14T19:36:51.404Z,4.47
2023-02-14T19:39:24.072Z,4.42
2023-02-14T19:41:52.379Z,4.41
2023-02-14T19:44:20.499Z,4.39
2023-02-14T19:46:48.630Z,4.37
2023-02-14T19:49:20.048Z,4.33
2023-02-14T19:51:50.689Z,4.29
2023-02-14T19:54:18.661Z,4.28
2023-02-14T19:56:50.441Z,4.27
2023-02-14T19:59:21.118Z,4.26
2023-02-14T20:01:53.628Z,4.25
2023-02-14T20:04:26.074Z,4.24
2023-02-14T20:06:55.692Z,4.22
2023-02-14T20:09:25.284Z,4.20
2023-02-14T20:11:56.708Z,4.19
2023-02-14T20:14:28.830Z,4.17
2023-02-14T20:16:59.510Z,4.12
2023-02-14T20:19:37.684Z,4.08
2023-02-14T20:22:07.551Z,4.02
2023-02-14T20:24:35.506Z,3.97
2023-02-14T20:27:03.501Z,3.91
2023-02-14T20:29:31.766Z,3.85
2023-02-14T20:32:03.215Z,3.80
2023-02-14T20:34:31.131Z,3.75
2023-02-14T20:36:59.789Z,3.72
2023-02-14T20:39:31.883Z,3.69
2023-02-14T20:42:00.580Z,3.66
2023-02-14T20:44:28.871Z,3.61
2023-02-14T20:46:57.988Z,3.55
2023-02-14T20:49:29.296Z,3.49
2023-02-14T20:51:57.944Z,3.45
2023-02-14T20:54:28.103Z,3.41
2023-02-14T20:56:57.363Z,3.37
2023-02-14T20:59:28.115Z,3.32
2023-02-14T21:01:58.380Z,3.28
2023-02-14T21:04:27.612Z,3.23
2023-02-14T21:06:57.192Z,3.16
2023-02-14T21:09:25.430Z,3.08
2023-02-14T21:11:53.796Z,3.01
2023-02-14T21:14:21.699Z,2.94
2023-02-14T21:16:49.663Z,2.88
2023-02-14T21:19:17.494Z,2.82
2023-02-14T21:21:47.408Z,2.77
2023-02-14T21:24:16.242Z,2.74
2023-02-14T21:26:44.586Z,2.70
2023-02-14T21:29:12.374Z,2.66
2023-02-14T21:31:41.754Z,2.63
2023-02-14T21:34:10.248Z,2.59
2023-02-14T21:36:38.037Z,2.57
2023-02-14T21:39:07.401Z,2.55
2023-02-14T21:41:36.800Z,2.54
2023-02-14T21:44:06.364Z,2.53
2023-02-14T21:46:40.490Z,2.52
2023-02-14T21:49:30.697Z,2.49
2023-02-14T21:51:58.745Z,2.49
2023-02-14T21:54:26.710Z,2.47
2023-02-14T21:56:54.440Z,2.46
2023-02-14T21:59:22.229Z,2.44
2023-02-14T22:01:49.977Z,2.38
2023-02-14T22:04:17.805Z,2.34
2023-02-14T22:06:46.034Z,2.34
2023-02-14T22:09:14.194Z,2.32
2023-02-14T22:11:42.462Z,2.27
2023-02-14T22:14:10.335Z,2.20
2023-02-14T22:16:38.366Z,2.13
2023-02-14T22:19:07.696Z,2.07
2023-02-14T22:21:35.664Z,2.03
2023-02-14T22:24:03.916Z,2.00
2023-02-14T22:26:38.102Z,1.94
2023-02-14T22:29:08.721Z,1.87
2023-02-14T22:31:43.806Z,1.80
2023-02-14T22:34:17.295Z,1.75
2023-02-14T22:36:46.223Z,1.72
2023-02-14T22:39:16.171Z,1.69
2023-02-14T22:41:44.144Z,1.67
2023-02-14T22:44:12.868Z,1.64
2023-02-14T22:46:41.446Z,1.60
2023-02-14T22:49:09.160Z,1.57
2023-02-14T22:51:40.371Z,1.54
2023-02-14T22:54:13.620Z,1.52
2023-02-14T22:56:47.810Z,1.49
2023-02-14T22:59:24.861Z,1.41
2023-02-14T23:01:53.997Z,1.31
2023-02-14T23:04:24.450Z,1.26
2023-02-14T23:06:53.417Z,1.23
2023-02-14T23:09:23.424Z,1.22
2023-02-14T23:11:51.515Z,1.18
2023-02-14T23:14:44.086Z,1.09
2023-02-14T23:17:23.805Z,0.97
2023-02-14T23:20:09.711Z,0.82
2023-02-14T23:22:40.489Z,0.75
2023-02-14T23:25:11.591Z,0.73
2023-02-14T23:27:43.791Z,0.72
2023-02-14T23:30:15.438Z,0.69
2023-02-14T23:32:43.665Z,0.60
2023-02-14T23:35:11.563Z,0.59
2023-02-14T23:37:39.407Z,0.62
2023-02-14T23:40:09.237Z,0.65
2023-02-14T23:42:36.955Z,0.68
2023-02-14T23:45:24.269Z,0.71
2023-02-14T23:47:52.047Z,0.73
2023-02-14T23:50:19.824Z,0.75
2023-02-14T23:52:47.582Z,0.77
2023-02-14T23:55:15.475Z,0.78
2023-02-14T23:57:43.285Z,0.78
